sensor_id;sensor_type;location;lat;lon;timestamp;P1;durP1;ratioP1;P2;durP2;ratioP2
49980;SDS011;35871;51.594;7.138;2022-11-09T08:05:06;8.13;;;5.07;;
49980;SDS011;35871;51.594;7.138;2022-11-09T08:10:07;4.28;;;1.80;;
49980;SDS011;35871;51.594;7.138;2022-11-09T08:15:15;5.13;;;2.13;;
49980;SDS011;35871;51.594;7.138;2022-11-09T08:20:16;3.80;;;1.70;;
49980;SDS011;35871;51.594;7.138;2022-11-09T08:25:17;4.85;;;2.05;;
49980;SDS011;35871;51.594;7.138;2022-11-09T08:30:19;3.92;;;2.53;;
49980;SDS011;35871;51.594;7.138;2022-11-09T08:35:23;5.57;;;2.65;;
49980;SDS011;35871;51.594;7.138;2022-11-09T08:40:24;6.72;;;3.47;;
49980;SDS011;35871;51.594;7.138;2022-11-09T08:45:25;7.55;;;4.90;;
49980;SDS011;35871;51.594;7.138;2022-11-09T08:50:30;8.00;;;5.35;;
49980;SDS011;35871;51.594;7.138;2022-11-09T08:55:31;10.80;;;7.30;;
49980;SDS011;35871;51.594;7.138;2022-11-09T09:00:32;6.80;;;4.30;;
49980;SDS011;35871;51.594;7.138;2022-11-09T09:05:33;5.78;;;4.00;;
49980;SDS011;35871;51.594;7.138;2022-11-09T09:10:35;5.45;;;3.42;;
49980;SDS011;35871;51.594;7.138;2022-11-09T09:15:36;5.57;;;3.05;;
49980;SDS011;35871;51.594;7.138;2022-11-09T09:20:37;6.85;;;3.53;;
49980;SDS011;35871;51.594;7.138;2022-11-09T09:25:38;7.15;;;3.45;;
49980;SDS011;35871;51.594;7.138;2022-11-09T09:30:39;7.00;;;3.90;;
49980;SDS011;35871;51.594;7.138;2022-11-09T09:35:40;5.78;;;2.53;;
49980;SDS011;35871;51.594;7.138;2022-11-09T09:40:47;5.28;;;2.30;;
49980;SDS011;35871;51.594;7.138;2022-11-09T09:45:54;6.82;;;2.72;;
49980;SDS011;35871;51.594;7.138;2022-11-09T09:50:57;5.55;;;2.20;;
49980;SDS011;35871;51.594;7.138;2022-11-09T09:56:05;5.72;;;2.85;;
49980;SDS011;35871;51.594;7.138;2022-11-09T10:01:17;6.20;;;2.92;;
49980;SDS011;35871;51.594;7.138;2022-11-09T10:27:26;6.25;;;2.38;;
49980;SDS011;35871;51.594;7.138;2022-11-09T10:32:36;9.18;;;2.10;;
49980;SDS011;35871;51.594;7.138;2022-11-09T10:37:38;4.43;;;2.22;;
49980;SDS011;35871;51.594;7.138;2022-11-09T10:42:49;4.40;;;2.47;;
49980;SDS011;35871;51.594;7.138;2022-11-09T10:53:32;5.97;;;2.40;;
49980;SDS011;35871;51.594;7.138;2022-11-09T10:58:37;6.80;;;3.22;;
49980;SDS011;35871;51.594;7.138;2022-11-09T11:09:42;4.40;;;1.65;;
49980;SDS011;35871;51.594;7.138;2022-11-09T11:19:44;4.90;;;1.98;;
49980;SDS011;35871;51.594;7.138;2022-11-09T11:24:49;3.20;;;1.67;;
49980;SDS011;35871;51.594;7.138;2022-11-09T11:29:53;4.70;;;1.63;;
49980;SDS011;35871;51.594;7.138;2022-11-09T11:34:56;4.40;;;1.38;;
49980;SDS011;35871;51.594;7.138;2022-11-09T11:39:58;4.35;;;1.45;;
49980;SDS011;35871;51.594;7.138;2022-11-09T11:55:29;6.07;;;3.75;;
49980;SDS011;35871;51.594;7.138;2022-11-09T12:00:36;4.70;;;2.25;;
49980;SDS011;35871;51.594;7.138;2022-11-09T12:10:49;2.88;;;1.30;;
49980;SDS011;35871;51.594;7.138;2022-11-09T12:20:56;3.42;;;1.25;;
49980;SDS011;35871;51.594;7.138;2022-11-09T12:36:08;2.17;;;1.10;;
49980;SDS011;35871;51.594;7.138;2022-11-09T12:41:12;3.05;;;1.20;;
49980;SDS011;35871;51.594;7.138;2022-11-09T12:46:15;5.78;;;1.40;;
49980;SDS011;35871;51.594;7.138;2022-11-09T12:51:17;3.38;;;1.48;;
49980;SDS011;35871;51.594;7.138;2022-11-09T12:56:21;4.47;;;1.40;;
49980;SDS011;35871;51.594;7.138;2022-11-09T13:06:30;5.57;;;1.20;;
49980;SDS011;35871;51.594;7.138;2022-11-09T13:11:39;4.75;;;1.60;;
49980;SDS011;35871;51.594;7.138;2022-11-09T13:16:40;4.50;;;1.08;;
49980;SDS011;35871;51.594;7.138;2022-11-09T13:21:41;3.65;;;1.40;;
49980;SDS011;35871;51.594;7.138;2022-11-09T13:42:27;3.42;;;1.20;;
49980;SDS011;35871;51.594;7.138;2022-11-09T13:47:33;4.28;;;1.40;;
49980;SDS011;35871;51.594;7.138;2022-11-09T13:52:45;4.30;;;1.27;;
49980;SDS011;35871;51.594;7.138;2022-11-09T13:57:47;4.03;;;1.33;;
49980;SDS011;35871;51.594;7.138;2022-11-09T14:02:56;5.40;;;1.40;;
49980;SDS011;35871;51.594;7.138;2022-11-09T14:07:58;4.70;;;1.27;;
49980;SDS011;35871;51.594;7.138;2022-11-09T14:23:27;4.10;;;1.60;;
49980;SDS011;35871;51.594;7.138;2022-11-09T14:28:29;4.38;;;1.50;;
49980;SDS011;35871;51.594;7.138;2022-11-09T14:33:33;4.25;;;1.40;;
49980;SDS011;35871;51.594;7.138;2022-11-09T14:38:35;3.75;;;1.58;;
49980;SDS011;35871;51.594;7.138;2022-11-09T14:43:43;4.97;;;1.55;;
49980;SDS011;35871;51.594;7.138;2022-11-09T14:48:51;4.13;;;1.42;;
49980;SDS011;35871;51.594;7.138;2022-11-09T14:53:53;5.63;;;1.50;;
49980;SDS011;35871;51.594;7.138;2022-11-09T14:58:55;7.32;;;1.67;;
49980;SDS011;35871;51.594;7.138;2022-11-09T15:04:13;5.25;;;1.40;;
49980;SDS011;35871;51.594;7.138;2022-11-09T15:09:33;5.18;;;1.45;;
49980;SDS011;35871;51.594;7.138;2022-11-09T15:14:35;3.03;;;1.48;;
49980;SDS011;35871;51.594;7.138;2022-11-09T15:19:37;6.15;;;1.45;;
49980;SDS011;35871;51.594;7.138;2022-11-09T15:24:46;4.35;;;1.80;;
49980;SDS011;35871;51.594;7.138;2022-11-09T15:29:47;4.38;;;1.50;;
49980;SDS011;35871;51.594;7.138;2022-11-09T15:34:52;5.55;;;1.95;;
49980;SDS011;35871;51.594;7.138;2022-11-09T15:39:54;9.07;;;1.80;;
49980;SDS011;35871;51.594;7.138;2022-11-09T15:44:58;5.60;;;1.52;;
49980;SDS011;35871;51.594;7.138;2022-11-09T15:50:01;4.97;;;1.83;;
49980;SDS011;35871;51.594;7.138;2022-11-09T15:55:02;4.95;;;1.75;;
49980;SDS011;35871;51.594;7.138;2022-11-09T16:00:03;4.70;;;1.77;;
49980;SDS011;35871;51.594;7.138;2022-11-09T16:05:04;4.13;;;2.00;;
49980;SDS011;35871;51.594;7.138;2022-11-09T16:10:11;5.95;;;2.20;;
49980;SDS011;35871;51.594;7.138;2022-11-09T16:15:12;6.00;;;2.58;;
49980;SDS011;35871;51.594;7.138;2022-11-09T16:20:14;5.03;;;2.42;;
49980;SDS011;35871;51.594;7.138;2022-11-09T16:30:57;4.43;;;1.70;;
49980;SDS011;35871;51.594;7.138;2022-11-09T16:36:05;6.97;;;2.03;;
49980;SDS011;35871;51.594;7.138;2022-11-09T16:41:08;5.25;;;1.85;;
49980;SDS011;35871;51.594;7.138;2022-11-09T16:46:12;4.57;;;2.30;;
49980;SDS011;35871;51.594;7.138;2022-11-09T16:51:20;5.30;;;2.70;;
49980;SDS011;35871;51.594;7.138;2022-11-09T16:56:21;5.07;;;1.92;;
49980;SDS011;35871;51.594;7.138;2022-11-09T17:01:22;4.07;;;1.60;;
49980;SDS011;35871;51.594;7.138;2022-11-09T17:06:23;4.78;;;1.63;;
49980;SDS011;35871;51.594;7.138;2022-11-09T17:11:25;5.47;;;2.20;;
49980;SDS011;35871;51.594;7.138;2022-11-09T17:16:27;5.88;;;1.83;;
49980;SDS011;35871;51.594;7.138;2022-11-09T17:21:33;3.60;;;1.50;;
49980;SDS011;35871;51.594;7.138;2022-11-09T17:26:46;4.38;;;1.42;;
49980;SDS011;35871;51.594;7.138;2022-11-09T17:31:47;3.58;;;1.70;;
49980;SDS011;35871;51.594;7.138;2022-11-09T17:36:52;3.90;;;1.52;;
49980;SDS011;35871;51.594;7.138;2022-11-09T17:41:56;7.28;;;1.85;;
49980;SDS011;35871;51.594;7.138;2022-11-09T17:58:06;5.80;;;1.92;;
49980;SDS011;35871;51.594;7.138;2022-11-09T18:03:17;5.47;;;1.80;;
49980;SDS011;35871;51.594;7.138;2022-11-09T18:08:18;4.55;;;1.80;;
49980;SDS011;35871;51.594;7.138;2022-11-09T18:13:19;5.28;;;2.05;;
49980;SDS011;35871;51.594;7.138;2022-11-09T18:18:21;5.03;;;2.55;;
49980;SDS011;35871;51.594;7.138;2022-11-09T18:23:33;6.43;;;3.45;;
49980;SDS011;35871;51.594;7.138;2022-11-09T18:28:35;7.03;;;3.10;;
49980;SDS011;35871;51.594;7.138;2022-11-09T18:33:42;10.48;;;5.80;;
49980;SDS011;35871;51.594;7.138;2022-11-09T18:39:02;6.43;;;2.90;;
49980;SDS011;35871;51.594;7.138;2022-11-09T18:44:03;7.40;;;2.70;;
49980;SDS011;35871;51.594;7.138;2022-11-09T19:00:06;8.15;;;5.05;;
49980;SDS011;35871;51.594;7.138;2022-11-09T19:05:07;10.45;;;6.95;;
49980;SDS011;35871;51.594;7.138;2022-11-09T19:10:28;8.35;;;3.97;;
49980;SDS011;35871;51.594;7.138;2022-11-09T19:15:49;8.27;;;5.00;;
49980;SDS011;35871;51.594;7.138;2022-11-09T19:20:53;7.70;;;3.17;;
49980;SDS011;35871;51.594;7.138;2022-11-09T19:25:55;6.88;;;2.60;;
49980;SDS011;35871;51.594;7.138;2022-11-09T19:31:02;7.50;;;2.05;;
49980;SDS011;35871;51.594;7.138;2022-11-09T19:36:03;5.90;;;2.45;;
49980;SDS011;35871;51.594;7.138;2022-11-09T19:41:29;6.63;;;2.85;;
49980;SDS011;35871;51.594;7.138;2022-11-09T19:46:33;7.13;;;3.40;;
49980;SDS011;35871;51.594;7.138;2022-11-09T19:51:34;6.30;;;2.38;;
49980;SDS011;35871;51.594;7.138;2022-11-09T19:56:37;5.75;;;2.67;;
49980;SDS011;35871;51.594;7.138;2022-11-09T20:01:51;8.10;;;1.83;;
49980;SDS011;35871;51.594;7.138;2022-11-09T20:06:53;5.47;;;2.95;;
49980;SDS011;35871;51.594;7.138;2022-11-09T20:11:57;5.90;;;2.75;;
49980;SDS011;35871;51.594;7.138;2022-11-09T20:17:16;5.22;;;2.40;;
49980;SDS011;35871;51.594;7.138;2022-11-09T20:22:18;5.63;;;2.38;;
